createdAt,value
2022-09-26T00:00:00.204Z,0.00
2022-09-26T00:01:00.230Z,0.00
2022-09-26T00:02:02.187Z,0.00
2022-09-26T00:03:01.150Z,0.00
2022-09-26T00:04:00.867Z,0.00
2022-09-26T00:05:03.948Z,0.00
2022-09-26T00:06:00.995Z,0.00
2022-09-26T00:07:00.962Z,0.00
2022-09-26T00:08:01.331Z,0.00
2022-09-26T00:09:02.426Z,0.00
2022-09-26T00:10:01.351Z,0.00
2022-09-26T00:11:01.277Z,0.00
2022-09-26T00:12:01.111Z,0.00
2022-09-26T00:13:01.329Z,0.00
2022-09-26T00:14:00.108Z,0.00
2022-09-26T00:15:00.849Z,0.00
2022-09-26T00:16:01.747Z,0.00
2022-09-26T00:17:00.097Z,0.00
2022-09-26T00:18:01.904Z,0.00
2022-09-26T00:19:00.874Z,0.00
2022-09-26T00:20:00.316Z,0.00
2022-09-26T00:21:02.430Z,0.00
2022-09-26T00:22:00.346Z,0.00
2022-09-26T00:23:00.021Z,0.00
2022-09-26T00:24:01.610Z,0.00
2022-09-26T00:25:01.314Z,0.00
2022-09-26T00:26:01.307Z,0.00
2022-09-26T00:26:59.941Z,0.00
2022-09-26T00:28:01.362Z,0.00
2022-09-26T00:29:01.805Z,0.00
2022-09-26T00:30:01.286Z,0.00
2022-09-26T00:30:59.948Z,0.00
2022-09-26T00:31:59.899Z,0.00
2022-09-26T00:33:00.943Z,0.00
2022-09-26T00:34:02.860Z,0.00
2022-09-26T00:34:59.922Z,0.00
2022-09-26T00:35:59.852Z,0.00
2022-09-26T00:36:59.907Z,0.00
2022-09-26T00:38:00.972Z,0.00
2022-09-26T00:39:02.103Z,0.00
2022-09-26T00:40:01.066Z,0.00
2022-09-26T00:41:03.104Z,0.00
2022-09-26T00:42:03.111Z,0.00
2022-09-26T00:43:01.873Z,0.00
2022-09-26T00:44:00.613Z,0.00
2022-09-26T00:44:59.831Z,0.00
2022-09-26T00:45:59.808Z,0.00
2022-09-26T00:46:59.774Z,0.00
2022-09-26T00:48:00.701Z,0.00
2022-09-26T00:48:59.754Z,0.00
2022-09-26T00:50:01.427Z,0.00
2022-09-26T00:51:00.764Z,0.00
2022-09-26T00:51:59.778Z,0.00
2022-09-26T00:52:59.666Z,0.00
2022-09-26T00:53:59.719Z,0.00
2022-09-26T00:54:59.756Z,0.00
2022-09-26T00:55:59.679Z,0.00
2022-09-26T00:57:00.362Z,0.00
2022-09-26T00:57:59.682Z,0.00
2022-09-26T00:58:59.670Z,0.00
2022-09-26T01:00:00.241Z,0.00
2022-09-26T01:01:00.594Z,0.00
2022-09-26T01:02:00.461Z,0.00
2022-09-26T01:03:00.206Z,0.00
2022-09-26T01:04:00.204Z,0.00
2022-09-26T01:04:59.594Z,0.00
2022-09-26T01:05:59.593Z,0.00
2022-09-26T01:06:59.601Z,0.00
2022-09-26T01:07:59.603Z,0.00
2022-09-26T01:08:59.622Z,0.00
2022-09-26T01:09:59.575Z,0.00
2022-09-26T01:10:59.618Z,0.00
2022-09-26T01:11:59.587Z,0.00
2022-09-26T01:12:59.550Z,0.00
2022-09-26T01:13:59.684Z,0.00
2022-09-26T01:14:59.596Z,0.00
2022-09-26T01:15:59.509Z,0.00
2022-09-26T01:17:00.335Z,0.00
2022-09-26T01:17:59.506Z,0.00
2022-09-26T01:18:59.532Z,0.00
2022-09-26T01:19:59.511Z,0.00
2022-09-26T01:20:59.497Z,0.00
2022-09-26T01:22:00.371Z,0.00
2022-09-26T01:22:59.510Z,0.00
2022-09-26T01:23:59.453Z,0.00
2022-09-26T01:24:59.454Z,0.00
2022-09-26T01:25:59.448Z,0.00
2022-09-26T01:26:59.455Z,0.00
2022-09-26T01:27:59.492Z,0.00
2022-09-26T01:28:59.448Z,0.00
2022-09-26T01:29:59.421Z,0.00
2022-09-26T01:31:00.214Z,0.00
2022-09-26T01:31:59.409Z,0.00
2022-09-26T01:32:59.418Z,0.00
2022-09-26T01:33:59.382Z,0.00
2022-09-26T01:34:59.392Z,0.00
2022-09-26T01:35:59.452Z,0.00
2022-09-26T01:36:59.426Z,0.00
2022-09-26T01:37:59.450Z,0.00
2022-09-26T01:38:59.368Z,0.00
2022-09-26T01:39:59.411Z,0.00
2022-09-26T01:40:59.398Z,0.00
2022-09-26T01:41:59.337Z,0.00
2022-09-26T01:42:59.458Z,0.00
2022-09-26T01:43:59.355Z,0.00
2022-09-26T01:44:59.312Z,0.00
2022-09-26T02:01:18.130Z,0.00
2022-09-26T02:02:06.291Z,0.00
2022-09-26T02:03:06.243Z,0.00
2022-09-26T02:04:06.211Z,0.00
2022-09-26T02:05:06.217Z,0.00
2022-09-26T02:06:06.219Z,0.00
2022-09-26T02:07:06.203Z,0.00
2022-09-26T02:08:06.196Z,0.00
2022-09-26T02:09:08.052Z,0.00
2022-09-26T02:10:06.210Z,0.00
2022-09-26T02:11:06.183Z,0.00
2022-09-26T02:12:06.180Z,0.00
2022-09-26T02:13:06.147Z,0.00
2022-09-26T02:14:06.174Z,0.00
2022-09-26T02:15:06.151Z,0.00
2022-09-26T02:16:06.204Z,0.00
2022-09-26T02:17:06.128Z,0.00
2022-09-26T02:18:06.105Z,0.00
2022-09-26T02:19:06.189Z,0.00
2022-09-26T02:20:06.122Z,0.00
2022-09-26T02:21:06.125Z,0.00
2022-09-26T02:22:06.114Z,0.00
2022-09-26T02:23:06.103Z,0.00
2022-09-26T02:24:06.078Z,0.00
2022-09-26T02:25:38.545Z,0.00
2022-09-26T02:26:06.116Z,0.00
2022-09-26T02:27:06.095Z,0.00
2022-09-26T02:28:06.083Z,0.00
2022-09-26T02:29:06.106Z,0.00
2022-09-26T02:30:06.100Z,0.00
2022-09-26T02:31:06.140Z,0.00
2022-09-26T02:32:06.154Z,0.00
2022-09-26T02:33:06.105Z,0.00
2022-09-26T02:34:06.068Z,0.00
2022-09-26T02:35:08.719Z,0.00
2022-09-26T02:36:06.049Z,0.00
2022-09-26T02:37:05.991Z,0.00
2022-09-26T02:38:06.077Z,0.00
2022-09-26T02:39:07.686Z,0.00
2022-09-26T02:40:06.005Z,0.00
2022-09-26T02:41:06.033Z,0.00
2022-09-26T02:42:06.016Z,0.00
2022-09-26T02:43:06.035Z,0.00
2022-09-26T02:44:05.999Z,0.00
2022-09-26T02:45:06.068Z,0.00
2022-09-26T02:46:06.101Z,0.00
2022-09-26T02:47:05.925Z,0.00
2022-09-26T02:48:08.671Z,0.00
2022-09-26T02:49:06.003Z,0.00
2022-09-26T02:50:05.924Z,0.00
2022-09-26T02:51:06.047Z,0.00
2022-09-26T02:52:06.592Z,0.00
2022-09-26T02:53:05.965Z,0.00
2022-09-26T02:54:06.706Z,0.00
2022-09-26T02:55:05.891Z,0.00
2022-09-26T02:56:05.908Z,0.00
2022-09-26T02:57:05.890Z,0.00
2022-09-26T02:58:05.886Z,0.00
2022-09-26T02:59:05.975Z,0.00
2022-09-26T03:00:05.906Z,0.00
2022-09-26T03:01:07.107Z,0.00
2022-09-26T03:02:05.889Z,0.00
2022-09-26T03:03:05.868Z,0.00
2022-09-26T03:04:05.818Z,0.00
2022-09-26T03:05:08.599Z,0.00
2022-09-26T03:06:06.754Z,0.00
2022-09-26T03:07:06.955Z,0.00
2022-09-26T03:08:08.531Z,0.00
2022-09-26T03:09:05.921Z,0.00
2022-09-26T03:10:05.798Z,0.00
2022-09-26T03:11:05.862Z,0.00
2022-09-26T03:12:05.771Z,0.00
2022-09-26T03:13:05.815Z,0.00
2022-09-26T03:14:05.815Z,0.00
2022-09-26T03:15:05.754Z,0.00
2022-09-26T03:16:06.784Z,0.00
2022-09-26T03:17:05.771Z,0.00
2022-09-26T03:18:07.499Z,0.00
2022-09-26T03:19:05.797Z,0.00
2022-09-26T03:20:08.460Z,0.00
2022-09-26T03:21:05.766Z,0.00
2022-09-26T03:22:07.445Z,0.00
2022-09-26T03:23:05.667Z,0.00
2022-09-26T03:24:05.694Z,0.00
2022-09-26T03:25:05.677Z,0.00
2022-09-26T03:26:05.662Z,0.00
2022-09-26T03:27:05.699Z,0.00
2022-09-26T03:28:05.697Z,0.00
2022-09-26T03:29:05.742Z,0.00
2022-09-26T03:30:05.617Z,0.00
2022-09-26T03:31:05.635Z,0.00
2022-09-26T03:32:05.659Z,0.00
2022-09-26T03:33:05.622Z,0.00
2022-09-26T03:34:05.658Z,0.00
2022-09-26T03:35:05.715Z,0.00
2022-09-26T03:36:05.652Z,0.00
2022-09-26T03:37:05.662Z,0.00
2022-09-26T03:38:05.581Z,0.00
2022-09-26T03:39:05.636Z,0.00
2022-09-26T03:40:05.596Z,0.00
2022-09-26T03:41:05.593Z,0.00
2022-09-26T03:42:05.572Z,0.00
2022-09-26T03:43:05.530Z,0.00
2022-09-26T03:44:13.155Z,0.00
2022-09-26T03:45:05.511Z,0.00
2022-09-26T03:46:05.603Z,0.00
2022-09-26T03:47:06.235Z,0.00
2022-09-26T04:02:42.620Z,0.00
2022-09-26T04:03:46.469Z,0.00
2022-09-26T04:04:43.364Z,0.00
2022-09-26T04:05:48.022Z,0.00
2022-09-26T04:06:45.061Z,0.00
2022-09-26T04:07:47.019Z,0.00
2022-09-26T04:08:43.541Z,0.00
2022-09-26T04:09:43.795Z,0.00
2022-09-26T04:10:43.622Z,0.00
2022-09-26T04:11:43.506Z,0.00
2022-09-26T04:12:43.628Z,0.00
2022-09-26T04:13:53.005Z,0.00
2022-09-26T04:14:45.553Z,0.00
2022-09-26T04:15:43.477Z,0.00
2022-09-26T04:16:43.563Z,0.00
2022-09-26T04:17:46.186Z,0.00
2022-09-26T04:18:43.970Z,0.00
2022-09-26T04:19:44.328Z,0.00
2022-09-26T04:20:43.513Z,0.00
2022-09-26T04:21:43.435Z,0.00
2022-09-26T04:22:43.467Z,0.00
2022-09-26T04:23:43.537Z,0.00
2022-09-26T04:24:43.455Z,0.00
2022-09-26T04:25:43.496Z,0.00
2022-09-26T04:26:43.406Z,0.00
2022-09-26T04:28:17.542Z,0.00
2022-09-26T04:28:43.358Z,0.00
2022-09-26T04:29:43.517Z,0.00
2022-09-26T04:30:43.475Z,0.00
2022-09-26T04:31:43.466Z,0.00
2022-09-26T04:32:44.201Z,0.00
2022-09-26T04:33:43.419Z,0.00
2022-09-26T04:34:43.390Z,0.00
2022-09-26T04:35:43.351Z,0.00
2022-09-26T04:36:43.335Z,0.00
2022-09-26T04:37:43.425Z,0.00
2022-09-26T04:38:44.163Z,0.00
2022-09-26T04:39:43.947Z,0.00
2022-09-26T04:40:43.595Z,0.00
2022-09-26T04:41:43.440Z,0.00
2022-09-26T04:42:43.277Z,0.00
2022-09-26T04:43:43.354Z,0.00
2022-09-26T04:44:43.271Z,0.00
2022-09-26T04:45:43.416Z,0.00
2022-09-26T04:46:46.034Z,0.00
2022-09-26T04:47:43.226Z,0.00
2022-09-26T04:48:44.027Z,0.00
2022-09-26T04:49:43.243Z,0.00
2022-09-26T04:50:43.268Z,0.00
2022-09-26T04:51:43.213Z,0.00
2022-09-26T04:52:43.234Z,0.00
2022-09-26T04:53:44.202Z,0.00
2022-09-26T04:54:43.303Z,0.00
2022-09-26T04:55:43.158Z,0.00
2022-09-26T04:56:46.077Z,0.00
2022-09-26T04:57:43.154Z,0.00
2022-09-26T04:58:43.100Z,0.00
2022-09-26T04:59:43.139Z,0.00
2022-09-26T05:00:45.919Z,0.00
2022-09-26T05:01:44.457Z,0.00
2022-09-26T05:02:43.194Z,0.00
2022-09-26T05:03:43.145Z,0.00
2022-09-26T05:04:43.169Z,0.00
2022-09-26T05:05:43.111Z,0.00
2022-09-26T05:06:43.087Z,5.62
2022-09-26T05:07:43.087Z,5.62
2022-09-26T05:08:44.119Z,5.62
2022-09-26T05:09:43.041Z,5.62
2022-09-26T05:10:43.051Z,5.62
2022-09-26T05:11:43.038Z,5.62
2022-09-26T05:12:43.130Z,5.62
2022-09-26T05:13:43.042Z,5.62
2022-09-26T05:14:43.130Z,11.25
2022-09-26T05:15:43.017Z,11.25
2022-09-26T05:16:43.072Z,11.25
2022-09-26T05:17:42.981Z,11.25
2022-09-26T05:18:45.718Z,16.88
2022-09-26T05:19:43.617Z,16.88
2022-09-26T05:20:43.014Z,16.88
2022-09-26T05:21:43.114Z,22.50
2022-09-26T05:22:45.541Z,22.50
2022-09-26T05:23:44.969Z,28.12
2022-09-26T05:24:43.973Z,28.12
2022-09-26T05:25:42.935Z,28.12
2022-09-26T05:26:42.924Z,33.75
2022-09-26T05:27:45.540Z,33.75
2022-09-26T05:28:43.507Z,33.75
2022-09-26T05:29:43.001Z,39.38
2022-09-26T05:30:42.937Z,50.62
2022-09-26T05:31:43.011Z,50.62
2022-09-26T05:32:45.574Z,45.00
2022-09-26T05:33:43.700Z,39.38
2022-09-26T05:34:42.942Z,39.38
2022-09-26T05:35:44.023Z,39.38
2022-09-26T05:36:42.957Z,33.75
2022-09-26T05:37:42.964Z,33.75
2022-09-26T05:38:42.811Z,33.75
2022-09-26T05:39:42.970Z,33.75
2022-09-26T05:40:43.045Z,33.75
2022-09-26T05:41:42.916Z,39.38
2022-09-26T05:42:45.687Z,39.38
2022-09-26T05:43:42.833Z,39.38
2022-09-26T05:44:42.844Z,39.38
2022-09-26T05:45:43.181Z,39.38
2022-09-26T05:46:42.846Z,39.38
2022-09-26T05:47:42.808Z,33.75
2022-09-26T05:48:42.794Z,33.75
2022-09-26T05:49:42.796Z,33.75
2022-09-26T05:50:43.720Z,33.75
2022-09-26T05:51:43.894Z,39.38
2022-09-26T05:52:42.773Z,39.38
2022-09-26T05:53:42.770Z,45.00
2022-09-26T05:54:42.803Z,45.00
2022-09-26T05:55:42.728Z,50.62
2022-09-26T05:56:42.687Z,56.25
2022-09-26T05:57:42.768Z,61.88
2022-09-26T05:58:44.200Z,61.88
2022-09-26T05:59:42.799Z,61.88
2022-09-26T06:00:44.363Z,67.50
2022-09-26T06:01:42.715Z,73.12
2022-09-26T06:02:42.763Z,73.12
2022-09-26T06:03:42.644Z,78.75
2022-09-26T06:04:43.499Z,78.75
2022-09-26T06:05:42.672Z,78.75
2022-09-26T06:06:42.808Z,78.75
2022-09-26T06:07:42.614Z,78.75
2022-09-26T06:08:42.733Z,78.75
2022-09-26T06:09:42.712Z,78.75
2022-09-26T06:10:42.598Z,84.38
2022-09-26T06:11:42.627Z,95.62
2022-09-26T06:12:47.561Z,95.62
2022-09-26T06:13:47.194Z,101.25
2022-09-26T06:14:42.638Z,112.50
2022-09-26T06:15:42.833Z,118.12
2022-09-26T06:16:42.620Z,118.12
2022-09-26T06:17:42.593Z,129.38
2022-09-26T06:18:45.060Z,129.38
2022-09-26T06:19:42.575Z,123.75
2022-09-26T06:20:44.313Z,118.12
2022-09-26T06:21:43.138Z,112.50
2022-09-26T06:22:42.639Z,106.88
2022-09-26T06:23:42.546Z,118.12
2022-09-26T06:24:42.601Z,118.12
2022-09-26T06:25:42.463Z,101.25
2022-09-26T06:26:45.185Z,101.25
2022-09-26T06:27:42.649Z,106.88
2022-09-26T06:28:42.897Z,101.25
2022-09-26T06:29:42.489Z,101.25
2022-09-26T06:30:42.532Z,101.25
2022-09-26T06:31:42.497Z,101.25
2022-09-26T06:32:42.425Z,101.25
2022-09-26T06:33:42.792Z,101.25
2022-09-26T06:34:42.544Z,101.25
2022-09-26T06:35:42.416Z,106.88
2022-09-26T06:36:42.380Z,112.50
2022-09-26T06:37:42.425Z,112.50
2022-09-26T06:38:42.358Z,101.25
2022-09-26T06:39:42.406Z,106.88
2022-09-26T06:40:42.564Z,106.88
2022-09-26T06:41:42.427Z,106.88
2022-09-26T06:42:42.418Z,112.50
2022-09-26T06:43:42.379Z,129.38
2022-09-26T06:44:43.154Z,135.00
2022-09-26T06:45:42.472Z,135.00
2022-09-26T06:46:42.462Z,123.75
2022-09-26T06:47:43.210Z,112.50
2022-09-26T06:48:42.370Z,118.12
2022-09-26T06:49:42.620Z,123.75
2022-09-26T06:50:42.322Z,118.12
2022-09-26T06:51:42.288Z,135.00
2022-09-26T06:52:42.299Z,129.38
2022-09-26T06:53:42.240Z,123.75
2022-09-26T06:54:42.325Z,118.12
2022-09-26T06:55:42.268Z,112.50
2022-09-26T06:56:42.302Z,101.25
2022-09-26T06:57:42.358Z,101.25
2022-09-26T06:58:42.351Z,101.25
2022-09-26T06:59:42.266Z,106.88
2022-09-26T07:00:42.314Z,129.38
2022-09-26T07:01:42.306Z,135.00
2022-09-26T07:02:42.253Z,129.38
2022-09-26T07:03:45.738Z,118.12
2022-09-26T07:04:43.213Z,118.12
2022-09-26T07:05:42.209Z,123.75
2022-09-26T07:06:42.175Z,146.25
2022-09-26T07:07:42.214Z,157.50
2022-09-26T07:09:44.189Z,146.25
2022-09-26T07:10:42.141Z,135.00
2022-09-26T07:12:12.494Z,129.38
2022-09-26T07:12:44.127Z,135.00
2022-09-26T07:13:42.821Z,140.62
2022-09-26T07:14:42.152Z,146.25
2022-09-26T07:15:42.185Z,157.50
2022-09-26T07:16:42.255Z,146.25
2022-09-26T07:17:42.093Z,146.25
2022-09-26T07:18:42.098Z,135.00
2022-09-26T07:19:42.046Z,135.00
2022-09-26T07:20:42.051Z,163.12
2022-09-26T07:21:42.119Z,185.62
2022-09-26T07:22:42.033Z,219.38
2022-09-26T07:23:42.068Z,225.00
2022-09-26T07:24:42.076Z,225.00
2022-09-26T07:25:42.058Z,241.88
2022-09-26T07:26:42.063Z,286.88
2022-09-26T07:27:41.991Z,320.62
2022-09-26T07:28:42.072Z,343.12
2022-09-26T07:29:41.960Z,365.62
2022-09-26T07:30:41.989Z,416.25
2022-09-26T07:31:42.057Z,421.88
2022-09-26T07:32:41.984Z,461.25
2022-09-26T07:33:44.680Z,416.25
2022-09-26T07:34:41.955Z,405.00
2022-09-26T07:35:42.132Z,410.62
2022-09-26T07:36:41.950Z,388.12
2022-09-26T07:37:41.984Z,545.62
2022-09-26T07:38:41.923Z,1648.12
2022-09-26T07:39:42.094Z,759.38
2022-09-26T07:40:41.931Z,1507.50
2022-09-26T07:41:41.932Z,776.25
2022-09-26T07:42:41.939Z,1035.00
2022-09-26T07:44:34.607Z,855.00
2022-09-26T07:45:43.882Z,1473.75
2022-09-26T07:46:42.021Z,1080.00
2022-09-26T07:47:41.835Z,1096.88
2022-09-26T07:48:41.902Z,3881.25
2022-09-26T07:49:41.846Z,1243.12
2022-09-26T07:50:42.017Z,967.50
2022-09-26T07:51:41.798Z,4218.75
2022-09-26T07:52:41.778Z,3836.25
2022-09-26T07:53:41.795Z,2913.75
2022-09-26T07:54:41.743Z,2306.25
2022-09-26T07:55:41.795Z,3993.75
2022-09-26T07:56:41.790Z,3155.62
2022-09-26T07:57:41.810Z,1558.12
2022-09-26T07:58:41.751Z,2407.50
2022-09-26T07:59:41.767Z,2075.62
2022-09-26T08:00:41.778Z,1085.62
2022-09-26T08:01:41.818Z,1147.50
2022-09-26T08:02:41.812Z,4258.12
2022-09-26T08:03:41.727Z,4719.38
2022-09-26T08:04:41.690Z,1338.75
2022-09-26T08:05:41.677Z,2199.38
2022-09-26T08:06:41.653Z,1046.25
2022-09-26T08:07:42.298Z,2941.88
2022-09-26T08:08:42.705Z,1119.38
2022-09-26T08:09:41.741Z,1591.88
2022-09-26T08:10:41.678Z,1333.12
2022-09-26T08:11:41.731Z,4533.75
2022-09-26T08:12:41.657Z,2604.38
2022-09-26T08:13:41.624Z,1355.62
2022-09-26T08:14:41.630Z,2070.00
2022-09-26T08:15:41.666Z,1940.62
2022-09-26T08:16:41.671Z,1299.38
2022-09-26T08:17:41.658Z,4466.25
2022-09-26T08:18:41.598Z,866.25
2022-09-26T08:19:41.619Z,3915.00
2022-09-26T08:20:41.619Z,1226.25
2022-09-26T08:21:41.606Z,1400.62
2022-09-26T08:22:41.602Z,1096.88
2022-09-26T08:23:41.577Z,1226.25
2022-09-26T08:24:41.572Z,4280.62
2022-09-26T08:26:15.580Z,2986.88
2022-09-26T08:26:44.425Z,2823.75
2022-09-26T08:27:42.455Z,2559.38
2022-09-26T08:28:41.477Z,4539.38
2022-09-26T08:29:41.462Z,1968.75
2022-09-26T08:30:41.496Z,4685.62
2022-09-26T08:31:41.621Z,4545.00
2022-09-26T08:32:41.492Z,4618.12
2022-09-26T08:33:41.468Z,4545.00
2022-09-26T08:34:42.119Z,4668.75
2022-09-26T08:35:42.451Z,4595.62
2022-09-26T08:36:41.474Z,4657.50
2022-09-26T08:37:41.492Z,4027.50
2022-09-26T08:38:42.235Z,4044.38
2022-09-26T08:39:41.433Z,3943.12
2022-09-26T08:40:42.537Z,1530.00
2022-09-26T08:41:41.440Z,3285.00
2022-09-26T08:42:41.409Z,3172.50
2022-09-26T08:43:41.389Z,961.88
2022-09-26T08:44:41.377Z,2593.12
2022-09-26T08:45:46.715Z,3611.25
2022-09-26T08:46:43.465Z,3656.25
2022-09-26T08:47:41.357Z,3363.75
2022-09-26T08:48:41.383Z,3178.12
2022-09-26T08:49:41.353Z,4044.38
2022-09-26T08:50:41.403Z,4044.38
2022-09-26T08:51:42.004Z,793.12
2022-09-26T08:52:41.283Z,675.00
2022-09-26T08:53:41.325Z,652.50
2022-09-26T08:54:41.348Z,798.75
2022-09-26T08:55:41.349Z,815.62
2022-09-26T08:56:41.271Z,708.75
2022-09-26T08:57:42.060Z,635.62
2022-09-26T08:58:41.357Z,1001.25
2022-09-26T08:59:41.327Z,675.00
2022-09-26T09:00:41.333Z,635.62
2022-09-26T09:01:41.403Z,551.25
2022-09-26T09:02:41.379Z,1192.50
2022-09-26T09:03:41.267Z,663.75
2022-09-26T09:04:41.292Z,618.75
2022-09-26T09:05:41.279Z,2131.88
2022-09-26T09:06:41.265Z,686.25
2022-09-26T09:07:41.252Z,613.12
2022-09-26T09:08:41.229Z,613.12
2022-09-26T09:09:42.089Z,720.00
2022-09-26T09:10:41.440Z,1608.75
2022-09-26T09:11:41.205Z,2058.75
2022-09-26T09:12:41.174Z,1957.50
2022-09-26T09:13:41.178Z,618.75
2022-09-26T09:14:41.190Z,2036.25
2022-09-26T09:15:41.262Z,2109.38
2022-09-26T09:16:41.178Z,2176.88
2022-09-26T09:17:42.017Z,973.12
2022-09-26T09:18:41.164Z,984.38
2022-09-26T09:19:41.165Z,725.62
2022-09-26T09:20:41.135Z,2070.00
2022-09-26T09:21:42.125Z,2070.00
2022-09-26T09:22:42.091Z,748.12
2022-09-26T09:23:41.211Z,1822.50
2022-09-26T09:24:41.128Z,1906.88
2022-09-26T09:25:41.102Z,883.12
2022-09-26T09:28:02.686Z,2064.38
2022-09-26T09:28:43.020Z,2120.62
2022-09-26T09:29:41.022Z,2160.00
2022-09-26T09:30:41.025Z,2199.38
2022-09-26T09:31:41.052Z,2210.62
2022-09-26T09:32:41.000Z,2311.88
2022-09-26T09:33:41.004Z,2385.00
2022-09-26T09:34:40.981Z,2581.88
2022-09-26T09:35:40.991Z,2773.12
2022-09-26T09:36:40.969Z,1906.88
2022-09-26T09:37:40.951Z,3217.50
2022-09-26T09:38:40.979Z,3673.12
2022-09-26T09:39:40.943Z,3960.00
2022-09-26T09:41:13.317Z,4168.12
2022-09-26T09:41:40.906Z,4066.88
2022-09-26T09:42:40.894Z,3718.12
2022-09-26T09:43:40.916Z,3217.50
2022-09-26T09:44:45.652Z,2700.00
2022-09-26T09:45:42.925Z,2328.75
2022-09-26T09:46:40.944Z,2075.62
2022-09-26T09:47:40.881Z,1912.50
2022-09-26T09:48:40.888Z,1811.25
2022-09-26T09:49:40.866Z,1648.12
2022-09-26T09:50:41.911Z,1670.62
2022-09-26T09:51:40.857Z,1546.88
2022-09-26T09:52:40.870Z,1496.25
2022-09-26T09:53:40.831Z,1378.12
2022-09-26T09:54:40.840Z,1299.38
2022-09-26T09:55:40.779Z,596.25
2022-09-26T09:56:40.800Z,1310.62
2022-09-26T09:57:40.832Z,720.00
2022-09-26T09:58:40.771Z,939.38
2022-09-26T09:59:40.816Z,1237.50
2022-09-26T10:00:41.787Z,1248.75
2022-09-26T10:01:40.795Z,1215.00
2022-09-26T10:02:40.822Z,1248.75
2022-09-26T10:03:40.739Z,641.25
2022-09-26T10:04:40.771Z,714.38
2022-09-26T10:05:40.753Z,1305.00
2022-09-26T10:06:46.120Z,1237.50
2022-09-26T10:07:41.702Z,1170.00
2022-09-26T10:08:40.694Z,1102.50
2022-09-26T10:09:41.082Z,1136.25
2022-09-26T10:10:40.691Z,641.25
2022-09-26T10:11:40.689Z,641.25
2022-09-26T10:12:40.708Z,596.25
2022-09-26T10:13:40.686Z,1164.38
2022-09-26T10:14:40.672Z,1158.75
2022-09-26T10:15:40.713Z,1125.00
2022-09-26T10:16:40.684Z,573.75
2022-09-26T10:17:40.751Z,1091.25
2022-09-26T10:18:40.652Z,736.88
2022-09-26T10:19:40.678Z,1125.00
2022-09-26T10:20:40.664Z,905.62
2022-09-26T10:21:41.247Z,973.12
2022-09-26T10:22:41.558Z,978.75
2022-09-26T10:23:40.603Z,489.38
2022-09-26T10:24:40.662Z,478.12
2022-09-26T10:25:40.621Z,517.50
2022-09-26T10:26:40.583Z,568.12
2022-09-26T10:27:40.625Z,1006.88
2022-09-26T10:28:40.605Z,939.38
2022-09-26T10:29:40.616Z,1012.50
2022-09-26T10:30:40.554Z,1012.50
2022-09-26T10:31:42.872Z,939.38
2022-09-26T10:32:41.604Z,528.75
2022-09-26T10:33:40.649Z,517.50
2022-09-26T10:34:40.538Z,686.25
2022-09-26T10:35:40.554Z,573.75
2022-09-26T10:36:40.490Z,573.75
2022-09-26T10:37:40.586Z,551.25
2022-09-26T10:38:40.510Z,860.62
2022-09-26T10:39:40.514Z,551.25
2022-09-26T10:40:40.579Z,511.88
2022-09-26T10:41:40.467Z,517.50
2022-09-26T10:42:40.445Z,523.12
2022-09-26T10:43:40.452Z,900.00
2022-09-26T10:44:40.469Z,568.12
2022-09-26T10:45:40.444Z,585.00
2022-09-26T10:46:40.526Z,579.38
2022-09-26T10:47:40.454Z,568.12
2022-09-26T10:48:40.458Z,556.88
2022-09-26T10:49:40.443Z,562.50
2022-09-26T10:50:40.443Z,579.38
2022-09-26T10:51:40.384Z,967.50
2022-09-26T10:52:40.397Z,635.62
2022-09-26T10:53:40.418Z,635.62
2022-09-26T10:54:40.366Z,590.62
2022-09-26T10:55:40.419Z,590.62
2022-09-26T10:56:40.350Z,652.50
2022-09-26T10:57:40.353Z,613.12
2022-09-26T10:58:40.347Z,855.00
2022-09-26T10:59:40.356Z,810.00
2022-09-26T11:00:40.339Z,900.00
2022-09-26T11:01:40.366Z,556.88
2022-09-26T11:02:40.329Z,528.75
2022-09-26T11:03:40.403Z,534.38
2022-09-26T11:04:40.287Z,742.50
2022-09-26T11:05:40.301Z,540.00
2022-09-26T11:06:40.300Z,500.62
2022-09-26T11:07:40.268Z,528.75
2022-09-26T11:08:40.277Z,630.00
2022-09-26T11:09:40.253Z,781.88
2022-09-26T11:10:40.230Z,534.38
2022-09-26T11:11:40.277Z,703.12
2022-09-26T11:12:40.221Z,798.75
2022-09-26T11:13:40.223Z,821.25
2022-09-26T11:14:40.253Z,568.12
2022-09-26T11:15:40.296Z,871.88
2022-09-26T11:16:40.241Z,725.62
2022-09-26T11:17:40.262Z,601.88
2022-09-26T11:18:40.180Z,742.50
2022-09-26T11:19:40.187Z,590.62
2022-09-26T11:20:40.189Z,781.88
2022-09-26T11:21:40.219Z,776.25
2022-09-26T11:22:40.239Z,708.75
2022-09-26T11:23:40.285Z,765.00
2022-09-26T11:24:40.156Z,511.88
2022-09-26T11:25:40.181Z,551.25
2022-09-26T11:26:40.189Z,753.75
2022-09-26T11:27:40.138Z,534.38
2022-09-26T11:28:40.800Z,736.88
2022-09-26T11:29:40.111Z,545.62
2022-09-26T11:30:40.096Z,568.12
2022-09-26T11:31:40.210Z,489.38
2022-09-26T11:32:40.133Z,495.00
2022-09-26T11:33:40.084Z,523.12
2022-09-26T11:34:41.075Z,540.00
2022-09-26T11:35:40.120Z,517.50
2022-09-26T11:36:40.041Z,585.00
2022-09-26T11:37:40.046Z,691.88
2022-09-26T11:38:40.121Z,663.75
2022-09-26T11:39:40.056Z,652.50
2022-09-26T11:40:40.123Z,624.38
2022-09-26T11:41:40.018Z,483.75
2022-09-26T11:42:39.993Z,461.25
2022-09-26T11:43:40.031Z,517.50
2022-09-26T11:44:42.729Z,511.88
2022-09-26T11:45:42.893Z,596.25
2022-09-26T11:46:43.390Z,646.88
2022-09-26T11:47:39.968Z,646.88
2022-09-26T11:48:39.968Z,630.00
2022-09-26T11:49:40.092Z,641.25
2022-09-26T11:50:39.933Z,517.50
2022-09-26T11:51:40.030Z,585.00
2022-09-26T11:52:40.039Z,551.25
2022-09-26T11:53:39.953Z,540.00
2022-09-26T11:54:39.958Z,472.50
2022-09-26T11:55:39.899Z,545.62
2022-09-26T11:56:39.916Z,472.50
2022-09-26T11:57:39.935Z,545.62
2022-09-26T11:58:39.882Z,568.12
2022-09-26T11:59:39.863Z,585.00
2022-09-26T12:00:39.877Z,601.88
2022-09-26T12:01:39.879Z,618.75
2022-09-26T12:02:39.985Z,635.62
2022-09-26T12:03:40.041Z,658.12
2022-09-26T12:04:39.854Z,646.88
2022-09-26T12:05:39.861Z,579.38
2022-09-26T12:06:39.894Z,551.25
2022-09-26T12:07:39.843Z,551.25
2022-09-26T12:08:39.787Z,540.00
2022-09-26T12:09:39.898Z,618.75
2022-09-26T12:10:39.871Z,607.50
2022-09-26T12:11:39.811Z,511.88
2022-09-26T12:12:40.646Z,466.88
2022-09-26T12:13:40.904Z,450.00
2022-09-26T12:15:13.771Z,427.50
2022-09-26T12:15:39.874Z,410.62
2022-09-26T12:16:40.829Z,388.12
2022-09-26T12:17:40.773Z,371.25
2022-09-26T12:18:39.858Z,360.00
2022-09-26T12:19:39.782Z,348.75
2022-09-26T12:20:39.807Z,331.88
2022-09-26T12:21:39.733Z,326.25
2022-09-26T12:22:39.776Z,320.62
2022-09-26T12:23:39.700Z,315.00
2022-09-26T12:24:40.359Z,309.38
2022-09-26T12:25:39.697Z,320.62
2022-09-26T12:26:39.708Z,337.50
2022-09-26T12:27:39.670Z,371.25
2022-09-26T12:28:39.692Z,405.00
2022-09-26T12:29:39.639Z,393.75
2022-09-26T12:31:16.114Z,382.50
2022-09-26T12:31:40.946Z,371.25
2022-09-26T12:33:12.104Z,343.12
2022-09-26T12:33:39.675Z,315.00
2022-09-26T12:34:39.618Z,292.50
2022-09-26T12:36:12.847Z,270.00
2022-09-26T12:36:40.465Z,253.12
2022-09-26T12:37:39.598Z,247.50
2022-09-26T12:39:13.982Z,225.00
2022-09-26T12:39:39.554Z,219.38
2022-09-26T12:40:39.677Z,208.12
2022-09-26T12:41:39.554Z,208.12
2022-09-26T12:42:39.567Z,208.12
2022-09-26T12:43:39.579Z,202.50
2022-09-26T12:45:12.834Z,202.50
2022-09-26T12:45:40.451Z,196.88
2022-09-26T12:47:13.947Z,196.88
2022-09-26T12:47:39.562Z,202.50
2022-09-26T12:48:39.544Z,196.88
2022-09-26T12:49:39.514Z,208.12
2022-09-26T12:50:39.492Z,230.62
2022-09-26T12:51:39.480Z,258.75
2022-09-26T12:52:39.533Z,275.62
2022-09-26T12:53:39.488Z,281.25
2022-09-26T12:54:39.516Z,281.25
2022-09-26T12:55:39.500Z,275.62
2022-09-26T12:56:39.523Z,270.00
2022-09-26T12:57:39.468Z,275.62
2022-09-26T12:58:39.552Z,309.38
2022-09-26T12:59:39.450Z,326.25
2022-09-26T13:00:40.353Z,354.38
2022-09-26T13:01:39.501Z,343.12
2022-09-26T13:02:39.532Z,371.25
2022-09-26T13:03:39.999Z,405.00
2022-09-26T13:06:37.525Z,478.12
2022-09-26T13:07:37.499Z,573.75
2022-09-26T13:08:38.631Z,466.88
2022-09-26T13:10:11.014Z,455.62
2022-09-26T13:10:39.546Z,421.88
2022-09-26T13:11:39.658Z,405.00
2022-09-26T13:12:38.602Z,388.12
2022-09-26T13:13:38.587Z,371.25
2022-09-26T13:14:40.267Z,371.25
2022-09-26T13:15:40.517Z,360.00
2022-09-26T13:16:38.687Z,365.62
2022-09-26T13:17:39.868Z,376.88
2022-09-26T13:18:38.600Z,461.25